Rector, Illinois
Current Conditions -  °F | °C
As of 3:35 PM on Wednesday 26 Nov 2014 (Local Time) from KHSB Reporting Station
Moderate Rain Moderate Rain  
Wind Chill: 31°   Ceiling: 1100
Heat Index: 37°   Visibility: 3mi
Dew Point: 33°   Wind: 7mph
Humidity: 86%   Direction: 140°SE
Pressure: 30.03"   Gusts: NA
Location:  37.8101°N, 88.4411°W
Report Text: KHSB 262135Z AUTO 14006KT 3SM RA BKN011 OVC020 03/00 A3003 RMK AO2 P0003 T00260004
Loading
Personal Weather Stations






























Interactive Weather Map New forecast layout! Learn more

10-Day Weather Forecast

Advertisements
Track Severe Weather on mobile